sensor_id;sensor_type;location;lat;lon;timestamp;P1;durP1;ratioP1;P2;durP2;ratioP2
22794;SDS011;11564;50.920;11.612;2023-07-16T00:02:09;10.87;;;5.33;;
22794;SDS011;11564;50.920;11.612;2023-07-16T00:04:35;11.43;;;6.30;;
22794;SDS011;11564;50.920;11.612;2023-07-16T00:07:00;10.17;;;5.73;;
22794;SDS011;11564;50.920;11.612;2023-07-16T00:09:29;9.33;;;5.90;;
22794;SDS011;11564;50.920;11.612;2023-07-16T00:11:54;10.90;;;5.13;;
22794;SDS011;11564;50.920;11.612;2023-07-16T00:14:20;9.30;;;5.60;;
22794;SDS011;11564;50.920;11.612;2023-07-16T00:16:46;9.20;;;5.67;;
22794;SDS011;11564;50.920;11.612;2023-07-16T00:19:12;9.50;;;5.93;;
22794;SDS011;11564;50.920;11.612;2023-07-16T00:21:39;8.40;;;6.03;;
22794;SDS011;11564;50.920;11.612;2023-07-16T00:24:04;8.77;;;5.87;;
22794;SDS011;11564;50.920;11.612;2023-07-16T00:26:30;9.30;;;5.27;;
22794;SDS011;11564;50.920;11.612;2023-07-16T00:28:56;7.50;;;4.70;;
22794;SDS011;11564;50.920;11.612;2023-07-16T00:31:21;8.57;;;6.33;;
22794;SDS011;11564;50.920;11.612;2023-07-16T00:33:47;9.33;;;6.17;;
22794;SDS011;11564;50.920;11.612;2023-07-16T00:36:13;7.67;;;5.50;;
22794;SDS011;11564;50.920;11.612;2023-07-16T00:38:38;9.70;;;5.50;;
22794;SDS011;11564;50.920;11.612;2023-07-16T00:41:05;7.53;;;5.50;;
22794;SDS011;11564;50.920;11.612;2023-07-16T00:43:31;9.07;;;6.07;;
22794;SDS011;11564;50.920;11.612;2023-07-16T00:45:56;6.33;;;5.17;;
22794;SDS011;11564;50.920;11.612;2023-07-16T00:48:23;10.63;;;5.90;;
22794;SDS011;11564;50.920;11.612;2023-07-16T00:50:49;7.60;;;5.00;;
22794;SDS011;11564;50.920;11.612;2023-07-16T00:53:17;6.07;;;5.53;;
22794;SDS011;11564;50.920;11.612;2023-07-16T00:55:42;8.40;;;5.93;;
22794;SDS011;11564;50.920;11.612;2023-07-16T00:58:08;6.03;;;5.43;;
22794;SDS011;11564;50.920;11.612;2023-07-16T01:00:34;7.23;;;4.90;;
22794;SDS011;11564;50.920;11.612;2023-07-16T01:03:02;6.23;;;5.63;;
22794;SDS011;11564;50.920;11.612;2023-07-16T01:08:32;5.60;;;5.10;;
22794;SDS011;11564;50.920;11.612;2023-07-16T01:11:03;6.50;;;4.90;;
22794;SDS011;11564;50.920;11.612;2023-07-16T01:13:29;5.50;;;4.97;;
22794;SDS011;11564;50.920;11.612;2023-07-16T01:15:55;6.47;;;5.40;;
22794;SDS011;11564;50.920;11.612;2023-07-16T01:18:21;7.87;;;5.57;;
22794;SDS011;11564;50.920;11.612;2023-07-16T01:20:46;10.00;;;4.90;;
22794;SDS011;11564;50.920;11.612;2023-07-16T01:23:24;6.33;;;4.47;;
22794;SDS011;11564;50.920;11.612;2023-07-16T01:26:06;7.77;;;4.77;;
22794;SDS011;11564;50.920;11.612;2023-07-16T01:31:20;4.80;;;4.50;;
22794;SDS011;11564;50.920;11.612;2023-07-16T01:33:47;8.23;;;4.63;;
22794;SDS011;11564;50.920;11.612;2023-07-16T01:36:14;5.90;;;3.90;;
22794;SDS011;11564;50.920;11.612;2023-07-16T01:38:41;3.97;;;3.30;;
22794;SDS011;11564;50.920;11.612;2023-07-16T01:41:07;3.33;;;3.13;;
22794;SDS011;11564;50.920;11.612;2023-07-16T01:43:33;3.40;;;3.10;;
22794;SDS011;11564;50.920;11.612;2023-07-16T01:45:58;3.73;;;3.43;;
22794;SDS011;11564;50.920;11.612;2023-07-16T01:48:28;5.53;;;3.60;;
22794;SDS011;11564;50.920;11.612;2023-07-16T01:50:57;4.90;;;4.50;;
22794;SDS011;11564;50.920;11.612;2023-07-16T01:53:23;7.80;;;3.10;;
22794;SDS011;11564;50.920;11.612;2023-07-16T01:55:48;4.57;;;3.30;;
22794;SDS011;11564;50.920;11.612;2023-07-16T01:58:14;3.90;;;3.60;;
22794;SDS011;11564;50.920;11.612;2023-07-16T02:00:40;5.73;;;3.40;;
22794;SDS011;11564;50.920;11.612;2023-07-16T02:03:06;3.00;;;2.80;;
22794;SDS011;11564;50.920;11.612;2023-07-16T02:05:31;4.50;;;4.10;;
22794;SDS011;11564;50.920;11.612;2023-07-16T02:07:57;3.67;;;3.37;;
22794;SDS011;11564;50.920;11.612;2023-07-16T02:10:23;3.87;;;3.57;;
22794;SDS011;11564;50.920;11.612;2023-07-16T02:12:48;4.07;;;3.77;;
22794;SDS011;11564;50.920;11.612;2023-07-16T02:15:14;3.70;;;3.40;;
22794;SDS011;11564;50.920;11.612;2023-07-16T02:17:40;3.57;;;3.27;;
22794;SDS011;11564;50.920;11.612;2023-07-16T02:20:06;4.60;;;3.93;;
22794;SDS011;11564;50.920;11.612;2023-07-16T02:22:33;3.50;;;3.20;;
22794;SDS011;11564;50.920;11.612;2023-07-16T02:25:00;3.57;;;2.80;;
22794;SDS011;11564;50.920;11.612;2023-07-16T02:27:26;3.50;;;3.13;;
22794;SDS011;11564;50.920;11.612;2023-07-16T02:29:52;4.00;;;2.43;;
22794;SDS011;11564;50.920;11.612;2023-07-16T02:32:17;2.80;;;2.60;;
22794;SDS011;11564;50.920;11.612;2023-07-16T02:34:43;3.40;;;3.10;;
22794;SDS011;11564;50.920;11.612;2023-07-16T02:37:08;3.30;;;3.10;;
22794;SDS011;11564;50.920;11.612;2023-07-16T02:39:34;3.33;;;3.03;;
22794;SDS011;11564;50.920;11.612;2023-07-16T02:42:00;4.10;;;3.80;;
22794;SDS011;11564;50.920;11.612;2023-07-16T02:44:25;3.37;;;3.07;;
22794;SDS011;11564;50.920;11.612;2023-07-16T02:46:51;3.27;;;3.07;;
22794;SDS011;11564;50.920;11.612;2023-07-16T02:49:16;3.80;;;3.50;;
22794;SDS011;11564;50.920;11.612;2023-07-16T02:51:42;3.70;;;3.40;;
22794;SDS011;11564;50.920;11.612;2023-07-16T02:54:08;5.73;;;3.40;;
22794;SDS011;11564;50.920;11.612;2023-07-16T02:56:33;4.50;;;3.13;;
22794;SDS011;11564;50.920;11.612;2023-07-16T02:58:59;5.17;;;3.20;;
22794;SDS011;11564;50.920;11.612;2023-07-16T03:01:25;2.47;;;2.37;;
22794;SDS011;11564;50.920;11.612;2023-07-16T03:03:50;9.00;;;3.00;;
22794;SDS011;11564;50.920;11.612;2023-07-16T03:06:16;3.70;;;2.60;;
22794;SDS011;11564;50.920;11.612;2023-07-16T03:08:42;2.70;;;2.60;;
22794;SDS011;11564;50.920;11.612;2023-07-16T03:11:10;7.70;;;2.60;;
22794;SDS011;11564;50.920;11.612;2023-07-16T03:13:36;2.53;;;2.40;;
22794;SDS011;11564;50.920;11.612;2023-07-16T03:16:01;2.33;;;2.23;;
22794;SDS011;11564;50.920;11.612;2023-07-16T03:18:28;2.03;;;1.83;;
22794;SDS011;11564;50.920;11.612;2023-07-16T03:20:54;2.67;;;2.47;;
22794;SDS011;11564;50.920;11.612;2023-07-16T03:23:20;3.07;;;2.50;;
22794;SDS011;11564;50.920;11.612;2023-07-16T03:25:46;2.50;;;2.37;;
22794;SDS011;11564;50.920;11.612;2023-07-16T03:28:12;3.73;;;1.93;;
22794;SDS011;11564;50.920;11.612;2023-07-16T03:30:38;2.57;;;2.20;;
22794;SDS011;11564;50.920;11.612;2023-07-16T03:33:04;2.83;;;2.43;;
22794;SDS011;11564;50.920;11.612;2023-07-16T03:35:29;2.57;;;2.30;;
22794;SDS011;11564;50.920;11.612;2023-07-16T03:37:55;3.20;;;2.13;;
22794;SDS011;11564;50.920;11.612;2023-07-16T03:40:23;4.73;;;2.13;;
22794;SDS011;11564;50.920;11.612;2023-07-16T03:42:50;3.73;;;2.30;;
22794;SDS011;11564;50.920;11.612;2023-07-16T03:45:16;2.80;;;2.60;;
22794;SDS011;11564;50.920;11.612;2023-07-16T03:47:42;5.33;;;2.50;;
22794;SDS011;11564;50.920;11.612;2023-07-16T03:50:08;3.00;;;2.70;;
22794;SDS011;11564;50.920;11.612;2023-07-16T03:52:34;2.90;;;2.60;;
22794;SDS011;11564;50.920;11.612;2023-07-16T03:54:59;4.13;;;2.07;;
22794;SDS011;11564;50.920;11.612;2023-07-16T03:57:27;2.20;;;2.07;;
22794;SDS011;11564;50.920;11.612;2023-07-16T03:59:53;2.10;;;2.00;;
22794;SDS011;11564;50.920;11.612;2023-07-16T04:02:19;2.30;;;2.10;;
22794;SDS011;11564;50.920;11.612;2023-07-16T04:04:45;3.07;;;2.20;;
22794;SDS011;11564;50.920;11.612;2023-07-16T04:07:10;2.10;;;2.00;;
22794;SDS011;11564;50.920;11.612;2023-07-16T04:09:39;3.77;;;2.00;;
22794;SDS011;11564;50.920;11.612;2023-07-16T04:12:05;2.87;;;1.20;;
22794;SDS011;11564;50.920;11.612;2023-07-16T04:14:32;1.80;;;1.67;;
22794;SDS011;11564;50.920;11.612;2023-07-16T04:16:57;1.60;;;1.10;;
22794;SDS011;11564;50.920;11.612;2023-07-16T04:19:23;5.10;;;1.67;;
22794;SDS011;11564;50.920;11.612;2023-07-16T04:21:49;1.70;;;1.60;;
22794;SDS011;11564;50.920;11.612;2023-07-16T04:24:14;2.50;;;1.47;;
22794;SDS011;11564;50.920;11.612;2023-07-16T04:26:40;1.40;;;1.30;;
22794;SDS011;11564;50.920;11.612;2023-07-16T04:29:06;2.30;;;1.50;;
22794;SDS011;11564;50.920;11.612;2023-07-16T04:31:31;1.40;;;1.30;;
22794;SDS011;11564;50.920;11.612;2023-07-16T04:33:57;1.67;;;1.57;;
22794;SDS011;11564;50.920;11.612;2023-07-16T04:36:23;1.50;;;1.40;;
22794;SDS011;11564;50.920;11.612;2023-07-16T04:38:49;1.40;;;1.30;;
22794;SDS011;11564;50.920;11.612;2023-07-16T04:41:16;1.77;;;1.30;;
22794;SDS011;11564;50.920;11.612;2023-07-16T04:43:41;1.60;;;1.50;;
22794;SDS011;11564;50.920;11.612;2023-07-16T04:46:07;1.60;;;1.40;;
22794;SDS011;11564;50.920;11.612;2023-07-16T04:48:32;1.47;;;1.37;;
22794;SDS011;11564;50.920;11.612;2023-07-16T04:50:58;4.10;;;1.60;;
22794;SDS011;11564;50.920;11.612;2023-07-16T04:53:24;1.57;;;1.47;;
22794;SDS011;11564;50.920;11.612;2023-07-16T04:55:50;1.33;;;1.23;;
22794;SDS011;11564;50.920;11.612;2023-07-16T04:58:15;2.53;;;1.50;;
22794;SDS011;11564;50.920;11.612;2023-07-16T05:00:41;3.63;;;1.60;;
22794;SDS011;11564;50.920;11.612;2023-07-16T05:03:07;3.07;;;1.70;;
22794;SDS011;11564;50.920;11.612;2023-07-16T05:05:33;4.17;;;1.67;;
22794;SDS011;11564;50.920;11.612;2023-07-16T05:07:59;5.57;;;1.77;;
22794;SDS011;11564;50.920;11.612;2023-07-16T05:10:26;1.63;;;1.33;;
22794;SDS011;11564;50.920;11.612;2023-07-16T05:12:52;1.83;;;1.40;;
22794;SDS011;11564;50.920;11.612;2023-07-16T05:15:18;2.00;;;1.67;;
22794;SDS011;11564;50.920;11.612;2023-07-16T05:17:44;2.23;;;1.20;;
22794;SDS011;11564;50.920;11.612;2023-07-16T05:20:09;5.03;;;1.70;;
22794;SDS011;11564;50.920;11.612;2023-07-16T05:22:35;3.00;;;1.70;;
22794;SDS011;11564;50.920;11.612;2023-07-16T05:25:01;1.13;;;1.03;;
22794;SDS011;11564;50.920;11.612;2023-07-16T05:27:27;3.60;;;1.90;;
22794;SDS011;11564;50.920;11.612;2023-07-16T05:29:53;3.10;;;1.73;;
22794;SDS011;11564;50.920;11.612;2023-07-16T05:32:19;1.70;;;1.60;;
22794;SDS011;11564;50.920;11.612;2023-07-16T05:34:44;2.50;;;1.97;;
22794;SDS011;11564;50.920;11.612;2023-07-16T05:37:11;3.67;;;1.67;;
22794;SDS011;11564;50.920;11.612;2023-07-16T05:39:37;2.50;;;1.77;;
22794;SDS011;11564;50.920;11.612;2023-07-16T05:42:03;5.30;;;1.80;;
22794;SDS011;11564;50.920;11.612;2023-07-16T05:44:29;1.67;;;1.57;;
22794;SDS011;11564;50.920;11.612;2023-07-16T05:46:54;6.93;;;1.60;;
22794;SDS011;11564;50.920;11.612;2023-07-16T05:49:20;3.63;;;2.20;;
22794;SDS011;11564;50.920;11.612;2023-07-16T05:51:45;3.97;;;2.10;;
22794;SDS011;11564;50.920;11.612;2023-07-16T05:54:11;6.00;;;1.90;;
22794;SDS011;11564;50.920;11.612;2023-07-16T05:56:37;2.83;;;1.80;;
22794;SDS011;11564;50.920;11.612;2023-07-16T05:59:02;1.77;;;1.60;;
22794;SDS011;11564;50.920;11.612;2023-07-16T06:01:28;4.67;;;1.70;;
22794;SDS011;11564;50.920;11.612;2023-07-16T06:03:53;6.47;;;2.33;;
22794;SDS011;11564;50.920;11.612;2023-07-16T06:06:19;3.20;;;1.70;;
22794;SDS011;11564;50.920;11.612;2023-07-16T06:08:45;2.47;;;1.60;;
22794;SDS011;11564;50.920;11.612;2023-07-16T06:11:11;2.77;;;1.60;;
22794;SDS011;11564;50.920;11.612;2023-07-16T06:13:37;1.80;;;1.70;;
22794;SDS011;11564;50.920;11.612;2023-07-16T06:16:03;6.80;;;1.53;;
22794;SDS011;11564;50.920;11.612;2023-07-16T06:18:29;3.77;;;1.60;;
22794;SDS011;11564;50.920;11.612;2023-07-16T06:20:55;3.77;;;1.90;;
22794;SDS011;11564;50.920;11.612;2023-07-16T06:23:20;1.63;;;1.53;;
22794;SDS011;11564;50.920;11.612;2023-07-16T06:25:46;2.57;;;1.60;;
22794;SDS011;11564;50.920;11.612;2023-07-16T06:28:13;6.37;;;1.90;;
22794;SDS011;11564;50.920;11.612;2023-07-16T06:30:39;3.10;;;1.87;;
22794;SDS011;11564;50.920;11.612;2023-07-16T06:33:05;4.67;;;1.90;;
22794;SDS011;11564;50.920;11.612;2023-07-16T06:35:31;6.07;;;2.20;;
22794;SDS011;11564;50.920;11.612;2023-07-16T06:37:57;4.60;;;2.00;;
22794;SDS011;11564;50.920;11.612;2023-07-16T06:40:23;9.20;;;1.47;;
22794;SDS011;11564;50.920;11.612;2023-07-16T06:42:49;4.73;;;1.40;;
22794;SDS011;11564;50.920;11.612;2023-07-16T06:45:15;3.07;;;2.00;;
22794;SDS011;11564;50.920;11.612;2023-07-16T06:47:41;3.33;;;1.60;;
22794;SDS011;11564;50.920;11.612;2023-07-16T06:50:07;4.67;;;1.90;;
22794;SDS011;11564;50.920;11.612;2023-07-16T06:52:33;3.90;;;1.40;;
22794;SDS011;11564;50.920;11.612;2023-07-16T06:54:59;12.20;;;1.90;;
22794;SDS011;11564;50.920;11.612;2023-07-16T06:57:24;3.77;;;2.37;;
22794;SDS011;11564;50.920;11.612;2023-07-16T06:59:50;2.67;;;1.50;;
22794;SDS011;11564;50.920;11.612;2023-07-16T07:02:16;4.10;;;1.30;;
22794;SDS011;11564;50.920;11.612;2023-07-16T07:04:42;2.40;;;1.30;;
22794;SDS011;11564;50.920;11.612;2023-07-16T07:07:08;3.40;;;2.17;;
22794;SDS011;11564;50.920;11.612;2023-07-16T07:09:34;2.20;;;1.37;;
22794;SDS011;11564;50.920;11.612;2023-07-16T07:12:00;5.80;;;1.60;;
22794;SDS011;11564;50.920;11.612;2023-07-16T07:14:25;2.60;;;1.83;;
22794;SDS011;11564;50.920;11.612;2023-07-16T07:16:51;3.93;;;1.70;;
22794;SDS011;11564;50.920;11.612;2023-07-16T07:19:16;3.50;;;2.10;;
22794;SDS011;11564;50.920;11.612;2023-07-16T07:21:42;3.63;;;1.60;;
22794;SDS011;11564;50.920;11.612;2023-07-16T07:24:08;3.63;;;1.97;;
22794;SDS011;11564;50.920;11.612;2023-07-16T07:26:33;12.23;;;1.80;;
22794;SDS011;11564;50.920;11.612;2023-07-16T07:28:59;3.40;;;1.63;;
22794;SDS011;11564;50.920;11.612;2023-07-16T07:31:24;6.10;;;1.40;;
22794;SDS011;11564;50.920;11.612;2023-07-16T07:33:50;2.87;;;1.73;;
22794;SDS011;11564;50.920;11.612;2023-07-16T07:36:16;3.10;;;1.53;;
22794;SDS011;11564;50.920;11.612;2023-07-16T07:38:41;2.40;;;1.40;;
22794;SDS011;11564;50.920;11.612;2023-07-16T07:41:07;3.17;;;1.77;;
22794;SDS011;11564;50.920;11.612;2023-07-16T07:43:33;3.80;;;1.93;;
22794;SDS011;11564;50.920;11.612;2023-07-16T07:45:58;2.60;;;1.50;;
22794;SDS011;11564;50.920;11.612;2023-07-16T07:48:24;1.80;;;1.40;;
22794;SDS011;11564;50.920;11.612;2023-07-16T07:50:49;4.30;;;2.20;;
22794;SDS011;11564;50.920;11.612;2023-07-16T07:53:15;8.10;;;2.20;;
22794;SDS011;11564;50.920;11.612;2023-07-16T07:55:43;5.37;;;1.80;;
22794;SDS011;11564;50.920;11.612;2023-07-16T07:58:09;3.57;;;1.83;;
22794;SDS011;11564;50.920;11.612;2023-07-16T08:00:35;3.10;;;1.60;;
22794;SDS011;11564;50.920;11.612;2023-07-16T08:03:00;2.57;;;1.90;;
22794;SDS011;11564;50.920;11.612;2023-07-16T08:05:26;3.87;;;1.60;;
22794;SDS011;11564;50.920;11.612;2023-07-16T08:07:52;3.50;;;1.33;;
22794;SDS011;11564;50.920;11.612;2023-07-16T08:10:18;3.13;;;1.80;;
22794;SDS011;11564;50.920;11.612;2023-07-16T08:12:44;2.13;;;1.40;;
22794;SDS011;11564;50.920;11.612;2023-07-16T08:15:10;3.13;;;1.50;;
22794;SDS011;11564;50.920;11.612;2023-07-16T08:17:43;5.50;;;2.00;;
22794;SDS011;11564;50.920;11.612;2023-07-16T08:20:10;2.67;;;1.57;;
22794;SDS011;11564;50.920;11.612;2023-07-16T08:22:37;3.93;;;1.70;;
22794;SDS011;11564;50.920;11.612;2023-07-16T08:25:03;6.23;;;1.70;;
22794;SDS011;11564;50.920;11.612;2023-07-16T08:27:29;5.07;;;1.43;;
22794;SDS011;11564;50.920;11.612;2023-07-16T08:29:55;2.60;;;1.60;;
22794;SDS011;11564;50.920;11.612;2023-07-16T08:32:21;4.43;;;1.97;;
22794;SDS011;11564;50.920;11.612;2023-07-16T08:34:47;3.43;;;1.70;;
22794;SDS011;11564;50.920;11.612;2023-07-16T08:37:13;5.03;;;2.17;;
22794;SDS011;11564;50.920;11.612;2023-07-16T08:39:39;7.40;;;2.10;;
22794;SDS011;11564;50.920;11.612;2023-07-16T08:42:04;2.23;;;1.80;;
22794;SDS011;11564;50.920;11.612;2023-07-16T08:44:31;4.07;;;1.67;;
22794;SDS011;11564;50.920;11.612;2023-07-16T08:46:57;2.03;;;1.30;;
22794;SDS011;11564;50.920;11.612;2023-07-16T08:49:23;4.30;;;1.83;;
22794;SDS011;11564;50.920;11.612;2023-07-16T08:51:52;3.57;;;1.07;;
22794;SDS011;11564;50.920;11.612;2023-07-16T08:54:19;9.63;;;2.57;;
22794;SDS011;11564;50.920;11.612;2023-07-16T08:56:45;4.90;;;1.80;;
22794;SDS011;11564;50.920;11.612;2023-07-16T08:59:12;4.93;;;1.43;;
22794;SDS011;11564;50.920;11.612;2023-07-16T09:01:39;3.40;;;1.50;;
22794;SDS011;11564;50.920;11.612;2023-07-16T09:04:05;2.00;;;1.60;;
22794;SDS011;11564;50.920;11.612;2023-07-16T09:06:30;1.73;;;1.50;;
22794;SDS011;11564;50.920;11.612;2023-07-16T09:08:56;2.80;;;1.80;;
22794;SDS011;11564;50.920;11.612;2023-07-16T09:11:22;2.80;;;1.30;;
22794;SDS011;11564;50.920;11.612;2023-07-16T09:13:48;8.80;;;1.77;;
22794;SDS011;11564;50.920;11.612;2023-07-16T09:16:14;5.50;;;1.73;;
22794;SDS011;11564;50.920;11.612;2023-07-16T09:18:41;3.60;;;1.73;;
22794;SDS011;11564;50.920;11.612;2023-07-16T09:21:08;2.90;;;1.47;;
22794;SDS011;11564;50.920;11.612;2023-07-16T09:23:34;5.43;;;1.60;;
22794;SDS011;11564;50.920;11.612;2023-07-16T09:26:00;3.47;;;1.83;;
22794;SDS011;11564;50.920;11.612;2023-07-16T09:28:25;4.97;;;1.53;;
22794;SDS011;11564;50.920;11.612;2023-07-16T09:30:51;3.27;;;1.40;;
22794;SDS011;11564;50.920;11.612;2023-07-16T09:33:18;3.00;;;1.70;;
22794;SDS011;11564;50.920;11.612;2023-07-16T09:35:47;6.60;;;2.23;;
22794;SDS011;11564;50.920;11.612;2023-07-16T09:38:16;5.23;;;1.60;;
22794;SDS011;11564;50.920;11.612;2023-07-16T09:40:43;2.10;;;1.47;;
22794;SDS011;11564;50.920;11.612;2023-07-16T09:43:09;3.80;;;2.20;;
22794;SDS011;11564;50.920;11.612;2023-07-16T09:45:35;4.30;;;1.60;;
22794;SDS011;11564;50.920;11.612;2023-07-16T09:48:02;4.37;;;2.03;;
22794;SDS011;11564;50.920;11.612;2023-07-16T09:50:29;1.80;;;1.20;;
22794;SDS011;11564;50.920;11.612;2023-07-16T09:52:57;4.03;;;1.80;;
22794;SDS011;11564;50.920;11.612;2023-07-16T09:55:23;5.47;;;1.50;;
22794;SDS011;11564;50.920;11.612;2023-07-16T09:57:50;4.60;;;1.93;;
22794;SDS011;11564;50.920;11.612;2023-07-16T10:00:20;3.53;;;1.60;;
22794;SDS011;11564;50.920;11.612;2023-07-16T10:02:47;3.97;;;1.70;;
22794;SDS011;11564;50.920;11.612;2023-07-16T10:05:15;3.13;;;1.47;;
22794;SDS011;11564;50.920;11.612;2023-07-16T10:07:51;3.43;;;2.07;;
22794;SDS011;11564;50.920;11.612;2023-07-16T10:10:25;8.43;;;2.03;;
22794;SDS011;11564;50.920;11.612;2023-07-16T10:13:02;2.97;;;1.80;;
22794;SDS011;11564;50.920;11.612;2023-07-16T10:15:29;4.00;;;1.60;;
22794;SDS011;11564;50.920;11.612;2023-07-16T10:17:55;3.27;;;1.67;;
22794;SDS011;11564;50.920;11.612;2023-07-16T10:20:29;3.03;;;1.60;;
22794;SDS011;11564;50.920;11.612;2023-07-16T10:22:55;7.63;;;1.60;;
22794;SDS011;11564;50.920;11.612;2023-07-16T10:27:47;7.90;;;1.70;;
22794;SDS011;11564;50.920;11.612;2023-07-16T10:30:14;4.77;;;1.70;;
22794;SDS011;11564;50.920;11.612;2023-07-16T10:32:40;4.03;;;1.60;;
22794;SDS011;11564;50.920;11.612;2023-07-16T10:35:06;4.27;;;1.80;;
22794;SDS011;11564;50.920;11.612;2023-07-16T10:37:34;3.20;;;1.60;;
22794;SDS011;11564;50.920;11.612;2023-07-16T10:40:00;4.03;;;1.57;;
22794;SDS011;11564;50.920;11.612;2023-07-16T10:42:27;7.07;;;2.27;;
22794;SDS011;11564;50.920;11.612;2023-07-16T10:45:03;2.80;;;2.17;;
22794;SDS011;11564;50.920;11.612;2023-07-16T10:47:33;3.47;;;1.83;;
22794;SDS011;11564;50.920;11.612;2023-07-16T10:50:00;5.10;;;2.20;;
22794;SDS011;11564;50.920;11.612;2023-07-16T10:52:29;3.30;;;1.70;;
22794;SDS011;11564;50.920;11.612;2023-07-16T10:54:54;5.40;;;2.10;;
22794;SDS011;11564;50.920;11.612;2023-07-16T10:57:29;2.80;;;1.90;;
22794;SDS011;11564;50.920;11.612;2023-07-16T10:59:56;10.03;;;1.83;;
22794;SDS011;11564;50.920;11.612;2023-07-16T11:02:23;5.27;;;2.30;;
22794;SDS011;11564;50.920;11.612;2023-07-16T11:04:50;8.20;;;2.47;;
22794;SDS011;11564;50.920;11.612;2023-07-16T11:07:19;2.70;;;1.70;;
22794;SDS011;11564;50.920;11.612;2023-07-16T11:09:50;5.30;;;1.93;;
22794;SDS011;11564;50.920;11.612;2023-07-16T11:12:18;6.77;;;2.20;;
22794;SDS011;11564;50.920;11.612;2023-07-16T11:14:47;2.63;;;1.70;;
22794;SDS011;11564;50.920;11.612;2023-07-16T11:17:14;5.20;;;2.23;;
22794;SDS011;11564;50.920;11.612;2023-07-16T11:19:40;6.10;;;1.87;;
22794;SDS011;11564;50.920;11.612;2023-07-16T11:22:10;5.30;;;2.20;;
22794;SDS011;11564;50.920;11.612;2023-07-16T11:24:45;5.53;;;2.07;;
22794;SDS011;11564;50.920;11.612;2023-07-16T11:27:31;3.23;;;1.83;;
22794;SDS011;11564;50.920;11.612;2023-07-16T11:29:57;2.47;;;2.00;;
22794;SDS011;11564;50.920;11.612;2023-07-16T11:32:33;5.23;;;1.93;;
22794;SDS011;11564;50.920;11.612;2023-07-16T11:35:04;4.73;;;1.90;;
22794;SDS011;11564;50.920;11.612;2023-07-16T11:37:32;5.43;;;2.87;;
22794;SDS011;11564;50.920;11.612;2023-07-16T11:40:09;4.83;;;1.87;;
22794;SDS011;11564;50.920;11.612;2023-07-16T11:42:37;4.90;;;2.53;;
22794;SDS011;11564;50.920;11.612;2023-07-16T11:45:03;14.93;;;2.67;;
22794;SDS011;11564;50.920;11.612;2023-07-16T11:47:31;5.07;;;2.33;;
22794;SDS011;11564;50.920;11.612;2023-07-16T11:49:56;5.77;;;2.47;;
22794;SDS011;11564;50.920;11.612;2023-07-16T11:52:26;4.03;;;2.03;;
22794;SDS011;11564;50.920;11.612;2023-07-16T11:54:53;4.60;;;2.17;;
22794;SDS011;11564;50.920;11.612;2023-07-16T11:57:19;6.13;;;2.13;;
22794;SDS011;11564;50.920;11.612;2023-07-16T11:59:45;6.30;;;2.07;;
22794;SDS011;11564;50.920;11.612;2023-07-16T12:02:11;2.50;;;1.87;;
22794;SDS011;11564;50.920;11.612;2023-07-16T12:04:37;4.80;;;2.30;;
22794;SDS011;11564;50.920;11.612;2023-07-16T12:07:03;3.77;;;2.10;;
22794;SDS011;11564;50.920;11.612;2023-07-16T12:09:28;5.63;;;2.43;;
22794;SDS011;11564;50.920;11.612;2023-07-16T12:11:54;3.23;;;2.27;;
22794;SDS011;11564;50.920;11.612;2023-07-16T12:14:21;6.67;;;2.07;;
22794;SDS011;11564;50.920;11.612;2023-07-16T12:16:47;8.70;;;2.23;;
22794;SDS011;11564;50.920;11.612;2023-07-16T12:19:13;5.03;;;2.20;;
22794;SDS011;11564;50.920;11.612;2023-07-16T12:21:39;7.10;;;2.57;;
22794;SDS011;11564;50.920;11.612;2023-07-16T12:24:05;4.17;;;2.33;;
22794;SDS011;11564;50.920;11.612;2023-07-16T12:26:31;4.27;;;1.83;;
22794;SDS011;11564;50.920;11.612;2023-07-16T12:28:56;4.17;;;2.13;;
22794;SDS011;11564;50.920;11.612;2023-07-16T12:31:22;2.73;;;1.80;;
22794;SDS011;11564;50.920;11.612;2023-07-16T12:33:48;9.93;;;2.23;;
22794;SDS011;11564;50.920;11.612;2023-07-16T12:36:14;7.40;;;2.40;;
22794;SDS011;11564;50.920;11.612;2023-07-16T12:38:40;6.40;;;2.90;;
22794;SDS011;11564;50.920;11.612;2023-07-16T12:41:06;2.93;;;2.37;;
22794;SDS011;11564;50.920;11.612;2023-07-16T12:43:32;4.87;;;1.90;;
22794;SDS011;11564;50.920;11.612;2023-07-16T12:46:00;3.17;;;1.90;;
22794;SDS011;11564;50.920;11.612;2023-07-16T12:48:27;5.63;;;2.13;;
22794;SDS011;11564;50.920;11.612;2023-07-16T12:50:53;5.57;;;2.50;;
22794;SDS011;11564;50.920;11.612;2023-07-16T12:53:19;9.80;;;2.53;;
22794;SDS011;11564;50.920;11.612;2023-07-16T12:55:45;4.90;;;2.67;;
22794;SDS011;11564;50.920;11.612;2023-07-16T12:58:10;3.97;;;2.40;;
22794;SDS011;11564;50.920;11.612;2023-07-16T13:00:36;5.00;;;2.03;;
22794;SDS011;11564;50.920;11.612;2023-07-16T13:03:01;3.20;;;2.67;;
22794;SDS011;11564;50.920;11.612;2023-07-16T13:05:27;9.20;;;2.80;;
22794;SDS011;11564;50.920;11.612;2023-07-16T13:07:53;5.03;;;2.60;;
22794;SDS011;11564;50.920;11.612;2023-07-16T13:10:19;7.20;;;2.40;;
22794;SDS011;11564;50.920;11.612;2023-07-16T13:12:44;3.47;;;2.33;;
22794;SDS011;11564;50.920;11.612;2023-07-16T13:15:10;3.20;;;2.23;;
22794;SDS011;11564;50.920;11.612;2023-07-16T13:17:36;4.43;;;2.60;;
22794;SDS011;11564;50.920;11.612;2023-07-16T13:20:02;3.70;;;2.23;;
22794;SDS011;11564;50.920;11.612;2023-07-16T13:22:28;12.43;;;2.90;;
22794;SDS011;11564;50.920;11.612;2023-07-16T13:24:54;6.80;;;2.70;;
22794;SDS011;11564;50.920;11.612;2023-07-16T13:27:20;6.23;;;2.00;;
22794;SDS011;11564;50.920;11.612;2023-07-16T13:29:46;4.00;;;2.33;;
22794;SDS011;11564;50.920;11.612;2023-07-16T13:32:12;9.53;;;1.90;;
22794;SDS011;11564;50.920;11.612;2023-07-16T13:34:37;3.03;;;2.33;;
22794;SDS011;11564;50.920;11.612;2023-07-16T13:37:03;7.70;;;2.20;;
22794;SDS011;11564;50.920;11.612;2023-07-16T13:39:29;4.77;;;2.40;;
22794;SDS011;11564;50.920;11.612;2023-07-16T13:41:54;5.10;;;2.30;;
22794;SDS011;11564;50.920;11.612;2023-07-16T13:44:20;4.03;;;2.10;;
22794;SDS011;11564;50.920;11.612;2023-07-16T13:46:46;5.90;;;2.27;;
22794;SDS011;11564;50.920;11.612;2023-07-16T13:49:12;5.03;;;1.80;;
22794;SDS011;11564;50.920;11.612;2023-07-16T13:51:38;3.63;;;2.00;;
22794;SDS011;11564;50.920;11.612;2023-07-16T13:54:04;2.40;;;2.00;;
22794;SDS011;11564;50.920;11.612;2023-07-16T13:56:30;2.43;;;1.60;;
22794;SDS011;11564;50.920;11.612;2023-07-16T13:58:55;2.50;;;1.80;;
22794;SDS011;11564;50.920;11.612;2023-07-16T14:01:21;4.80;;;1.93;;
22794;SDS011;11564;50.920;11.612;2023-07-16T14:03:48;2.40;;;2.20;;
22794;SDS011;11564;50.920;11.612;2023-07-16T14:06:14;3.40;;;1.90;;
22794;SDS011;11564;50.920;11.612;2023-07-16T14:08:39;4.47;;;2.30;;
22794;SDS011;11564;50.920;11.612;2023-07-16T14:11:05;2.33;;;2.17;;
22794;SDS011;11564;50.920;11.612;2023-07-16T14:13:31;4.07;;;2.20;;
22794;SDS011;11564;50.920;11.612;2023-07-16T14:15:56;3.33;;;2.07;;
22794;SDS011;11564;50.920;11.612;2023-07-16T14:18:22;2.83;;;2.10;;
22794;SDS011;11564;50.920;11.612;2023-07-16T14:20:48;3.03;;;2.17;;
22794;SDS011;11564;50.920;11.612;2023-07-16T14:23:14;3.33;;;2.03;;
22794;SDS011;11564;50.920;11.612;2023-07-16T14:25:40;4.17;;;2.30;;
22794;SDS011;11564;50.920;11.612;2023-07-16T14:28:06;2.70;;;2.50;;
22794;SDS011;11564;50.920;11.612;2023-07-16T14:30:32;5.67;;;2.73;;
22794;SDS011;11564;50.920;11.612;2023-07-16T14:32:57;4.27;;;2.30;;
22794;SDS011;11564;50.920;11.612;2023-07-16T14:35:24;3.13;;;2.20;;
22794;SDS011;11564;50.920;11.612;2023-07-16T14:37:50;2.40;;;2.20;;